Time;durP1;ratioP1;P1;durP2;ratioP2;P2;SDS_P1;SDS_P2;PMS_P1;PMS_P2;Temp;Humidity;BMP_temperature;BMP_pressure;BME280_temperature;BME280_humidity;BME280_pressure;Samples;Min_cycle;Max_cycle;Signal;HPM_P1;HPM_P2
2022/11/25 00:01:10;;;;;;;5.18;1.50;;;;;;;-140.72;100.00;53166.06;5096609;28;20028;-63
2022/11/25 00:03:37;;;;;;;5.15;2.05;;;;;;;-140.72;100.00;53153.88;5101294;27;20108;-63
2022/11/25 00:06:11;;;;;;;4.50;1.30;;;;;;;-140.72;100.00;53168.09;5097480;27;20423;-63
2022/11/25 00:08:36;;;;;;;7.25;1.88;;;;;;;-140.72;100.00;53121.41;5101854;27;20481;-63
2022/11/25 00:11:03;;;;;;;2.53;1.60;;;;;;;-140.72;100.00;53137.66;5104341;28;20028;-66
2022/11/25 00:13:29;;;;;;;18.02;2.10;;;;;;;-140.72;100.00;53157.94;5104642;27;20093;-64
2022/11/25 00:15:54;;;;;;;3.75;1.83;;;;;;;-140.72;100.00;53168.09;5103123;27;20035;-64
2022/11/25 00:18:20;;;;;;;8.23;2.20;;;;;;;-140.72;100.00;53180.25;5105327;28;20035;-66
2022/11/25 00:20:46;;;;;;;12.45;1.90;;;;;;;-140.72;100.00;53176.22;5099569;28;20144;-62
2022/11/25 00:23:11;;;;;;;6.75;2.08;;;;;;;-140.72;100.00;53117.34;5100634;28;20023;-66
2022/11/25 00:25:36;;;;;;;3.92;1.85;;;;;;;-140.72;100.00;53159.97;5103445;28;20472;-63
2022/11/25 00:28:02;;;;;;;7.63;3.28;;;;;;;-140.72;100.00;53143.72;5095431;27;20525;-65
2022/11/25 00:30:27;;;;;;;11.77;2.38;;;;;;;-140.72;100.00;53174.19;5094711;27;20028;-63
2022/11/25 00:32:53;;;;;;;3.42;2.25;;;;;;;-140.72;100.00;53164.03;5096785;28;20566;-63
2022/11/25 00:35:20;;;;;;;8.30;2.38;;;;;;;-140.72;100.00;53170.13;5100051;27;20024;-63
2022/11/25 00:37:45;;;;;;;5.63;2.05;;;;;;;-140.72;100.00;53166.06;5105311;28;20015;-68
2022/11/25 00:40:11;;;;;;;6.82;1.50;;;;;;;-140.72;100.00;53125.47;5096503;28;20036;-63
2022/11/25 00:45:20;;;;;;;3.35;1.90;;;;;;;-140.72;100.00;53151.84;5094700;28;20069;-63
2022/11/25 00:47:46;;;;;;;5.03;1.85;;;;;;;-140.72;100.00;53170.13;5097132;28;20020;-65
2022/11/25 00:50:11;;;;;;;6.03;2.20;;;;;;;-140.72;100.00;53208.69;5095237;28;20025;-64
2022/11/25 00:52:36;;;;;;;8.02;2.83;;;;;;;-140.72;100.00;53180.25;5096264;27;20023;-63
2022/11/25 00:55:03;;;;;;;7.63;2.92;;;;;;;-140.72;100.00;53145.75;5102405;28;20027;-65
2022/11/25 00:57:29;;;;;;;8.75;2.42;;;;;;;-140.72;100.00;53141.69;5101686;27;20450;-63
2022/11/25 00:59:54;;;;;;;3.90;2.72;;;;;;;-140.72;100.00;53153.88;5095199;28;20028;-66
2022/11/25 01:02:20;;;;;;;9.75;2.28;;;;;;;-140.72;100.00;53182.28;5097608;28;20138;-64
2022/11/25 01:04:45;;;;;;;11.20;3.92;;;;;;;-140.72;100.00;53202.59;5110373;28;20090;-64
2022/11/25 01:07:11;;;;;;;10.45;2.65;;;;;;;-140.72;100.00;53141.69;5108816;28;20020;-66
2022/11/25 01:09:36;;;;;;;3.53;2.95;;;;;;;-140.72;100.00;53139.69;5110391;28;20024;-63
2022/11/25 01:12:03;;;;;;;13.18;2.40;;;;;;;-140.72;100.00;53168.09;5111790;28;20032;-66
2022/11/25 01:14:28;;;;;;;9.95;3.13;;;;;;;-140.72;100.00;53172.16;5119264;28;20433;-64
2022/11/25 01:16:53;;;;;;;6.03;2.65;;;;;;;-140.72;100.00;53151.84;5091069;28;20119;-63
2022/11/25 01:19:19;;;;;;;6.75;2.75;;;;;;;-140.72;100.00;53135.63;5098955;28;20046;-62
2022/11/25 01:21:45;;;;;;;4.75;2.58;;;;;;;-140.72;100.00;53162.00;5105413;28;20634;-63
2022/11/25 01:24:13;;;;;;;6.07;3.30;;;;;;;-140.72;100.00;53168.09;5096206;28;20024;-63
2022/11/25 01:26:38;;;;;;;3.55;2.10;;;;;;;-140.72;100.00;53157.94;5108235;28;20028;-63
2022/11/25 01:29:06;;;;;;;7.00;2.22;;;;;;;-140.72;100.00;53168.09;5114704;28;20085;-62
2022/11/25 01:31:34;;;;;;;9.23;2.80;;;;;;;-140.72;100.00;53125.47;5102007;28;20465;-67
2022/11/25 01:34:02;;;;;;;9.02;2.33;;;;;;;-140.72;100.00;53180.25;5108444;28;20051;-63
2022/11/25 01:36:28;;;;;;;6.53;2.72;;;;;;;-140.72;100.00;53119.38;5100742;28;20030;-63
2022/11/25 01:38:56;;;;;;;7.30;2.63;;;;;;;-140.72;100.00;53157.94;5115741;28;20035;-66
2022/11/25 01:41:24;;;;;;;8.93;2.53;;;;;;;-140.72;100.00;53125.47;5109301;28;20050;-63
2022/11/25 01:44:15;;;;;;;6.55;2.72;;;;;;;-140.72;100.00;53141.69;5115599;28;20485;-63
2022/11/25 01:46:55;;;;;;;4.45;1.80;;;;;;;-140.72;100.00;53155.91;5111007;28;20047;-64
2022/11/25 01:49:31;;;;;;;5.10;2.28;;;;;;;-140.72;100.00;53141.69;5101994;27;20114;-63
2022/11/25 01:52:03;;;;;;;7.85;1.65;;;;;;;-140.72;100.00;53170.13;5107558;28;20031;-64
2022/11/25 01:54:45;;;;;;;8.05;2.20;;;;;;;-140.72;100.00;53186.34;5100497;28;20034;-63
2022/11/25 01:57:16;;;;;;;3.15;1.80;;;;;;;-140.72;100.00;53182.28;5113501;28;20027;-63
2022/11/25 01:59:48;;;;;;;11.38;2.35;;;;;;;-140.72;100.00;53155.91;5113678;28;20016;-63
2022/11/25 02:02:15;;;;;;;7.88;2.00;;;;;;;-140.72;100.00;53121.41;5112024;28;20106;-63
2022/11/25 02:04:43;;;;;;;8.18;1.35;;;;;;;-140.72;100.00;53176.22;5118131;27;20544;-68
2022/11/25 02:07:16;;;;;;;3.10;1.30;;;;;;;-140.72;100.00;53149.81;5117348;27;20081;-62
2022/11/25 02:09:42;;;;;;;6.45;1.63;;;;;;;-140.72;100.00;53133.59;5111957;28;20028;-64
2022/11/25 02:12:09;;;;;;;9.38;2.50;;;;;;;-140.72;100.00;53121.41;5112886;27;20026;-64
2022/11/25 02:14:34;;;;;;;8.27;1.70;;;;;;;-140.72;100.00;53166.06;5111699;27;20051;-63
2022/11/25 02:17:01;;;;;;;5.57;1.60;;;;;;;-140.72;100.00;53162.00;5110479;27;20493;-64
2022/11/25 02:19:48;;;;;;;7.47;1.40;;;;;;;-140.72;100.00;53141.69;5113630;28;20028;-65
2022/11/25 02:22:25;;;;;;;13.55;2.63;;;;;;;-140.72;100.00;53162.00;5108184;28;20114;-64
2022/11/25 02:24:56;;;;;;;6.22;1.13;;;;;;;-140.72;100.00;53149.81;5113732;27;20027;-64
2022/11/25 02:27:22;;;;;;;3.22;1.00;;;;;;;-140.72;100.00;53168.09;5110777;28;20027;-63
2022/11/25 02:29:50;;;;;;;2.85;1.02;;;;;;;-140.72;100.00;53143.72;5112589;28;20027;-63
2022/11/25 02:32:20;;;;;;;5.38;1.48;;;;;;;-140.72;100.00;53180.25;5099799;28;20031;-67
2022/11/25 02:34:49;;;;;;;4.38;1.33;;;;;;;-140.72;100.00;53174.19;5112469;27;20070;-63
2022/11/25 02:37:17;;;;;;;8.50;1.30;;;;;;;-140.72;100.00;53194.47;5121503;27;20035;-64
2022/11/25 02:39:45;;;;;;;7.63;1.60;;;;;;;-140.72;100.00;53202.59;5112131;28;20465;-63
2022/11/25 02:42:10;;;;;;;6.38;0.80;;;;;;;-140.72;100.00;53186.34;5108703;28;20023;-65
2022/11/25 02:44:36;;;;;;;5.10;0.90;;;;;;;-140.72;100.00;53149.81;5107778;28;20401;-63
2022/11/25 02:47:01;;;;;;;3.85;1.20;;;;;;;-140.72;100.00;53168.09;5110240;27;20040;-63
2022/11/25 02:49:26;;;;;;;4.45;1.33;;;;;;;-140.72;100.00;53178.22;5100637;27;20075;-68
2022/11/25 02:51:52;;;;;;;4.40;1.10;;;;;;;-140.72;100.00;53202.59;5108780;28;20032;-64
2022/11/25 02:54:17;;;;;;;2.40;1.05;;;;;;;-140.72;100.00;53123.44;5101164;28;20122;-64
2022/11/25 02:56:43;;;;;;;6.47;1.17;;;;;;;-140.72;100.00;53178.22;5103432;28;20404;-65
2022/11/25 02:59:09;;;;;;;4.47;1.42;;;;;;;-140.72;100.00;53157.94;5101372;27;20032;-67
2022/11/25 03:01:37;;;;;;;5.05;1.45;;;;;;;-140.72;100.00;53145.75;5103175;27;20050;-63
2022/11/25 03:04:02;;;;;;;7.00;1.55;;;;;;;-140.72;100.00;53153.88;5098812;28;20035;-63
2022/11/25 03:06:29;;;;;;;2.63;0.68;;;;;;;-140.72;100.00;53178.22;5099723;28;20023;-63
2022/11/25 03:08:54;;;;;;;2.85;1.42;;;;;;;-140.72;100.00;53149.81;5097762;27;20073;-63
2022/11/25 03:12:17;;;;;;;2.03;1.02;;;;;;;-140.72;100.00;53137.66;5097611;28;20020;-63
2022/11/25 03:14:05;;;;;;;2.63;1.00;;;;;;;-140.72;100.00;53176.22;5105479;28;20078;-66
2022/11/25 03:16:31;;;;;;;2.53;1.48;;;;;;;-140.72;100.00;53162.00;5101081;27;20031;-63
2022/11/25 03:18:56;;;;;;;1.13;0.60;;;;;;;-140.72;100.00;53162.00;5111537;27;20027;-67
2022/11/25 03:21:21;;;;;;;6.32;1.10;;;;;;;-140.72;100.00;53141.69;5104065;28;20039;-63
2022/11/25 03:23:47;;;;;;;1.55;0.80;;;;;;;-140.72;100.00;53113.28;5094164;27;20056;-66
2022/11/25 03:26:13;;;;;;;4.00;1.00;;;;;;;-140.72;100.00;53164.03;5104881;27;20394;-66
2022/11/25 03:28:38;;;;;;;2.38;0.82;;;;;;;-140.72;100.00;53180.25;5108616;27;20030;-68
2022/11/25 03:31:09;;;;;;;2.05;0.90;;;;;;;-140.72;100.00;53157.94;5111314;28;20031;-65
2022/11/25 03:33:34;;;;;;;2.65;0.95;;;;;;;-140.72;100.00;53178.22;5094373;28;20084;-63
2022/11/25 03:36:00;;;;;;;1.83;1.00;;;;;;;-140.72;100.00;53174.19;5095648;28;20050;-63
2022/11/25 03:38:25;;;;;;;3.95;1.00;;;;;;;-140.72;100.00;53166.06;5108356;28;20405;-65
2022/11/25 03:40:50;;;;;;;4.43;0.80;;;;;;;-140.72;100.00;53164.03;5111291;28;20051;-64
2022/11/25 03:43:16;;;;;;;1.25;0.70;;;;;;;-140.72;100.00;53157.94;5094515;28;20084;-63
2022/11/25 03:45:41;;;;;;;1.02;0.68;;;;;;;-140.72;100.00;53190.41;5090287;28;20119;-63
2022/11/25 03:48:07;;;;;;;1.55;0.77;;;;;;;-140.72;100.00;53162.00;5100020;27;20047;-63
2022/11/25 03:50:32;;;;;;;2.97;0.88;;;;;;;-140.72;100.00;53168.09;5112287;27;20031;-63
2022/11/25 03:52:58;;;;;;;2.67;1.00;;;;;;;-140.72;100.00;53206.66;5099941;28;20481;-63
2022/11/25 03:55:23;;;;;;;8.90;0.65;;;;;;;-140.72;100.00;53216.78;5094221;28;20028;-63
2022/11/25 03:57:48;;;;;;;3.45;0.82;;;;;;;-140.72;100.00;53170.13;5104416;27;20110;-66
2022/11/25 04:00:14;;;;;;;1.05;0.60;;;;;;;-140.72;100.00;53176.22;5096602;28;20028;-62
2022/11/25 04:02:39;;;;;;;4.20;0.80;;;;;;;-140.72;100.00;53168.09;5097028;28;20055;-66
2022/11/25 04:05:05;;;;;;;0.60;0.30;;;;;;;-140.72;100.00;53178.22;5111228;28;20027;-67
2022/11/25 04:07:31;;;;;;;2.63;0.63;;;;;;;-140.72;100.00;53198.53;5103628;27;20115;-66
2022/11/25 04:09:56;;;;;;;3.38;0.68;;;;;;;-140.72;100.00;53170.13;5109570;28;20027;-66
2022/11/25 04:15:06;;;;;;;1.45;0.75;;;;;;;-140.72;100.00;53186.34;5100756;27;20054;-63
2022/11/25 04:17:31;;;;;;;1.45;0.35;;;;;;;-140.72;100.00;53155.91;5102693;28;20460;-63
2022/11/25 04:19:57;;;;;;;2.65;0.55;;;;;;;-140.72;100.00;53176.22;5099353;28;20031;-63
2022/11/25 04:22:22;;;;;;;1.75;0.30;;;;;;;-140.72;100.00;53172.16;5110023;27;20141;-63
2022/11/25 04:24:48;;;;;;;3.75;1.13;;;;;;;-140.72;100.00;53149.81;5104064;28;20034;-65
2022/11/25 04:27:13;;;;;;;0.60;0.45;;;;;;;-140.72;100.00;53202.59;5105753;28;20030;-66
2022/11/25 04:29:38;;;;;;;0.88;0.52;;;;;;;-140.72;100.00;53182.28;5093485;27;20077;-65
2022/11/25 04:32:04;;;;;;;1.15;0.50;;;;;;;-140.72;100.00;53153.88;5094286;27;20494;-63
2022/11/25 04:34:29;;;;;;;1.00;0.50;;;;;;;-140.72;100.00;53214.78;5092940;27;20019;-67
2022/11/25 04:36:54;;;;;;;1.65;1.08;;;;;;;-140.72;100.00;53153.88;5108503;27;20033;-65
2022/11/25 04:39:20;;;;;;;4.53;1.00;;;;;;;-140.72;100.00;53192.44;5108236;28;20020;-65
2022/11/25 04:41:45;;;;;;;2.63;1.48;;;;;;;-140.72;100.00;53198.53;5108627;28;20092;-67
2022/11/25 04:44:11;;;;;;;4.93;1.25;;;;;;;-140.72;100.00;53157.94;5108861;28;20466;-66
2022/11/25 04:46:41;;;;;;;3.03;1.08;;;;;;;-140.72;100.00;53155.91;5110657;28;20023;-66
2022/11/25 04:49:06;;;;;;;;;;;;;;;-140.72;100.00;53188.38;5104624;28;20103;-66
2022/11/25 04:51:32;;;;;;;7.53;1.23;;;;;;;-140.72;100.00;53155.91;5103574;27;20428;-63
2022/11/25 04:53:57;;;;;;;2.53;1.23;;;;;;;-140.72;100.00;53194.47;5094039;28;20369;-65
2022/11/25 04:56:23;;;;;;;2.80;1.05;;;;;;;-140.72;100.00;53200.56;5100093;28;20031;-63
2022/11/25 05:01:32;;;;;;;3.72;1.25;;;;;;;-140.72;100.00;53174.19;5107192;28;20042;-63
2022/11/25 05:03:58;;;;;;;2.70;1.17;;;;;;;-140.72;100.00;53182.28;5100031;28;20023;-65
2022/11/25 05:06:23;;;;;;;4.82;1.60;;;;;;;-140.72;100.00;53180.25;5116737;27;20232;-64
2022/11/25 05:08:50;;;;;;;3.55;1.30;;;;;;;-140.72;100.00;53190.41;5102676;28;20077;-63
2022/11/25 05:11:16;;;;;;;1.38;0.93;;;;;;;-140.72;100.00;53200.56;5090805;28;20502;-63
2022/11/25 05:13:42;;;;;;;3.17;1.35;;;;;;;-140.72;100.00;53149.81;5097202;28;20054;-63
2022/11/25 05:16:07;;;;;;;3.30;0.90;;;;;;;-140.72;100.00;53190.41;5109152;28;20427;-67
2022/11/25 05:18:32;;;;;;;2.50;0.93;;;;;;;-140.72;100.00;53214.78;5102168;28;20038;-65
2022/11/25 05:21:02;;;;;;;3.97;1.17;;;;;;;-140.72;100.00;53200.56;5105338;27;20062;-63
2022/11/25 05:23:28;;;;;;;;;;;;;;;-140.72;100.00;53208.69;5105701;28;20103;-64
2022/11/25 05:25:59;;;;;;;2.55;0.90;;;;;;;-140.72;100.00;53194.47;5108539;27;20002;-67
2022/11/25 05:28:25;;;;;;;0.77;0.55;;;;;;;-140.72;100.00;53190.41;5105832;28;20436;-63
2022/11/25 05:30:50;;;;;;;5.75;1.38;;;;;;;-140.72;100.00;53168.09;5099802;27;20126;-64
2022/11/25 05:33:15;;;;;;;2.08;0.98;;;;;;;-140.72;100.00;53192.44;5113481;27;20031;-66
2022/11/25 05:35:41;;;;;;;1.75;0.75;;;;;;;-140.72;100.00;53139.69;5114150;27;20043;-63
2022/11/25 05:38:06;;;;;;;1.10;0.75;;;;;;;-140.72;100.00;53174.19;5123206;27;20043;-68
2022/11/25 05:40:31;;;;;;;4.22;0.95;;;;;;;-140.72;100.00;53235.06;5109815;28;20107;-64
2022/11/25 05:42:59;;;;;;;2.47;0.77;;;;;;;-140.72;100.00;53178.22;5093885;28;20024;-63
2022/11/25 05:45:25;;;;;;;1.63;0.73;;;;;;;-140.72;100.00;53174.19;5115620;27;20062;-65
2022/11/25 05:47:50;;;;;;;4.28;1.20;;;;;;;-140.72;100.00;53184.31;5102807;27;20047;-64
2022/11/25 05:50:15;;;;;;;2.75;1.15;;;;;;;-140.72;100.00;53170.13;5101103;28;20386;-63
2022/11/25 05:52:41;;;;;;;2.22;1.20;;;;;;;-140.72;100.00;53145.75;5097067;28;20024;-63
2022/11/25 05:55:07;;;;;;;1.58;1.00;;;;;;;-140.72;100.00;53198.53;5098948;28;20039;-66
2022/11/25 05:57:32;;;;;;;2.80;1.30;;;;;;;-140.72;100.00;53202.59;5099212;27;20493;-63
2022/11/25 05:59:57;;;;;;;1.13;0.80;;;;;;;-140.72;100.00;53141.69;5107621;27;20032;-63
2022/11/25 06:02:23;;;;;;;3.35;1.30;;;;;;;-140.72;100.00;53180.25;5105353;28;20302;-65
2022/11/25 06:04:48;;;;;;;5.60;1.45;;;;;;;-140.72;100.00;53170.13;5118709;27;20114;-65
2022/11/25 06:07:14;;;;;;;4.47;1.95;;;;;;;-140.72;100.00;53184.31;5103928;28;20480;-63
2022/11/25 06:09:39;;;;;;;4.25;1.25;;;;;;;-140.72;100.00;53202.59;5103308;27;20035;-63
2022/11/25 06:12:05;;;;;;;7.18;1.80;;;;;;;-140.72;100.00;53184.31;5094825;27;20039;-64
2022/11/25 06:14:31;;;;;;;6.07;1.50;;;;;;;-140.72;100.00;53149.81;5108678;27;20040;-63
2022/11/25 06:16:56;;;;;;;3.22;1.38;;;;;;;-140.72;100.00;53129.53;5113113;27;20493;-66
2022/11/25 06:19:21;;;;;;;3.05;1.27;;;;;;;-140.72;100.00;53226.94;5106263;27;20076;-63
2022/11/25 06:21:47;;;;;;;3.20;1.10;;;;;;;-140.72;100.00;53182.28;5105426;28;20084;-63
2022/11/25 06:24:12;;;;;;;1.88;0.93;;;;;;;-140.72;100.00;53233.03;5100266;28;20053;-63
2022/11/25 06:26:38;;;;;;;4.25;1.33;;;;;;;-140.72;100.00;53212.75;5105455;28;20035;-63
2022/11/25 06:29:03;;;;;;;2.15;1.33;;;;;;;-140.72;100.00;53202.59;5095288;28;20024;-63
2022/11/25 06:31:29;;;;;;;1.90;0.90;;;;;;;-140.72;100.00;53233.03;5114888;27;20039;-63
2022/11/25 06:33:54;;;;;;;2.67;1.42;;;;;;;-140.72;100.00;53178.22;5099036;28;20028;-66
2022/11/25 06:36:21;;;;;;;4.82;1.95;;;;;;;-140.72;100.00;53166.06;5093931;28;20051;-67
2022/11/25 06:38:50;;;;;;;2.35;1.27;;;;;;;-140.72;100.00;53194.47;5109298;27;20031;-63
2022/11/25 06:41:15;;;;;;;3.88;1.52;;;;;;;-140.72;100.00;53214.78;5102908;28;20512;-65
2022/11/25 06:43:41;;;;;;;4.10;1.27;;;;;;;-140.72;100.00;53198.53;5103753;28;20030;-64
2022/11/25 06:46:08;;;;;;;1.17;0.73;;;;;;;-140.72;100.00;53172.16;5103005;27;20063;-63
2022/11/25 06:48:35;;;;;;;2.88;1.42;;;;;;;-140.72;100.00;53202.59;5104011;27;20059;-68
2022/11/25 06:51:03;;;;;;;4.80;2.70;;;;;;;-140.72;100.00;53196.50;5098022;28;20017;-69
2022/11/25 06:53:30;;;;;;;2.58;1.25;;;;;;;-140.72;100.00;53186.34;5098093;28;20024;-64
2022/11/25 06:56:23;;;;;;;3.53;1.30;;;;;;;-140.72;100.00;53162.00;5098790;27;20028;-71
2022/11/25 06:58:49;;;;;;;1.67;0.50;;;;;;;-140.72;100.00;53208.69;5093596;28;20032;-64
2022/11/25 07:01:20;;;;;;;3.63;1.00;;;;;;;-140.72;100.00;53214.78;5095081;28;20040;-64
2022/11/25 07:03:48;;;;;;;6.18;1.88;;;;;;;-140.72;100.00;53222.88;5101233;28;20024;-64
2022/11/25 07:06:15;;;;;;;2.05;1.13;;;;;;;-140.72;100.00;53226.94;5098409;27;20519;-64
2022/11/25 07:08:41;;;;;;;3.67;1.38;;;;;;;-140.72;100.00;53202.59;5096131;28;20438;-64
2022/11/25 07:11:13;;;;;;;3.60;1.33;;;;;;;-140.72;100.00;53182.28;5103017;27;20501;-64
2022/11/25 07:13:38;;;;;;;4.03;1.70;;;;;;;-140.72;100.00;53202.59;5099982;28;20481;-65
2022/11/25 07:16:05;;;;;;;3.03;1.25;;;;;;;-140.72;100.00;53172.16;5098709;27;20035;-66
2022/11/25 07:18:33;;;;;;;3.00;1.15;;;;;;;-140.72;100.00;53218.81;5104641;27;20047;-68
2022/11/25 07:21:06;;;;;;;4.22;1.13;;;;;;;-140.72;100.00;53214.78;5098190;28;20469;-64
2022/11/25 07:23:32;;;;;;;3.40;1.33;;;;;;;-140.72;100.00;53186.34;5105436;28;20023;-64
2022/11/25 07:26:05;;;;;;;6.18;1.63;;;;;;;-140.72;100.00;53190.41;5097864;28;20020;-65
2022/11/25 07:28:31;;;;;;;5.68;0.75;;;;;;;-140.72;100.00;53228.97;5103842;27;20024;-64
2022/11/25 07:31:07;;;;;;;7.22;2.05;;;;;;;-140.72;100.00;53151.84;5107136;28;20016;-66
2022/11/25 07:33:33;;;;;;;2.83;1.05;;;;;;;-140.72;100.00;53210.72;5101057;27;20023;-64
2022/11/25 07:36:06;;;;;;;5.50;1.77;;;;;;;-140.72;100.00;53208.69;5102175;27;20422;-65
2022/11/25 07:38:32;;;;;;;2.30;1.20;;;;;;;-140.72;100.00;53226.94;5100913;27;20111;-64
2022/11/25 07:41:09;;;;;;;5.45;1.35;;;;;;;-140.72;100.00;53172.16;5094642;28;20013;-64
2022/11/25 07:43:35;;;;;;;1.92;1.13;;;;;;;-140.72;100.00;53231.00;5098891;27;20028;-64
2022/11/25 07:46:11;;;;;;;4.50;1.33;;;;;;;-140.72;100.00;53178.22;5103509;27;20024;-67
2022/11/25 07:48:37;;;;;;;1.58;0.88;;;;;;;-140.72;100.00;53188.38;5106062;27;20107;-65
2022/11/25 07:51:03;;;;;;;4.53;1.23;;;;;;;-140.72;100.00;53178.22;5103651;27;20130;-66
2022/11/25 07:53:28;;;;;;;2.83;1.15;;;;;;;-140.72;100.00;53186.34;5104830;28;20028;-66
2022/11/25 07:55:54;;;;;;;5.28;1.55;;;;;;;-140.72;100.00;53182.28;5100248;28;20103;-64
2022/11/25 07:58:19;;;;;;;4.45;1.30;;;;;;;-140.72;100.00;53172.16;5098768;28;20027;-64
2022/11/25 08:00:44;;;;;;;1.73;1.00;;;;;;;-140.72;100.00;53196.50;5106938;27;20077;-64
2022/11/25 08:03:10;;;;;;;2.05;0.80;;;;;;;-140.72;100.00;53174.19;5104661;27;20393;-65
2022/11/25 08:05:35;;;;;;;6.45;1.42;;;;;;;-140.72;100.00;53208.69;5111537;27;20063;-64
2022/11/25 08:08:00;;;;;;;3.03;1.30;;;;;;;-140.72;100.00;53208.69;5109725;27;20037;-64
2022/11/25 08:10:26;;;;;;;2.38;1.10;;;;;;;-140.72;100.00;53172.16;5102239;27;20031;-64
2022/11/25 08:12:51;;;;;;;3.25;0.63;;;;;;;-140.72;100.00;53174.19;5102441;28;20048;-67
2022/11/25 08:15:16;;;;;;;2.92;0.95;;;;;;;-140.72;100.00;53159.97;5099937;27;20040;-64
2022/11/25 08:17:42;;;;;;;2.75;0.80;;;;;;;-140.72;100.00;53157.94;5102006;28;20020;-66
2022/11/25 08:20:07;;;;;;;2.25;0.80;;;;;;;-140.72;100.00;53198.53;5103812;27;20108;-64
2022/11/25 08:22:33;;;;;;;3.63;1.70;;;;;;;-140.72;100.00;53194.47;5099637;27;20473;-64
2022/11/25 08:24:58;;;;;;;5.25;0.95;;;;;;;-140.72;100.00;53190.41;5097067;27;20115;-64
2022/11/25 08:27:24;;;;;;;4.43;0.80;;;;;;;-140.72;100.00;53170.13;5098255;27;20466;-64
2022/11/25 08:29:49;;;;;;;1.23;0.68;;;;;;;-140.72;100.00;53155.91;5097485;28;20036;-64
2022/11/25 08:32:14;;;;;;;1.90;0.65;;;;;;;-140.72;100.00;53186.34;5099518;28;20829;-62
2022/11/25 08:34:41;;;;;;;7.00;1.10;;;;;;;-140.72;100.00;53170.13;5100149;28;20024;-64
2022/11/25 08:37:06;;;;;;;2.53;1.05;;;;;;;-140.72;100.00;53157.94;5095086;28;20442;-63
2022/11/25 08:39:32;;;;;;;5.13;1.00;;;;;;;-140.72;100.00;53166.06;5095039;28;20079;-65
2022/11/25 08:42:02;;;;;;;3.22;1.15;;;;;;;-140.72;100.00;53172.16;5100781;28;20183;-67
2022/11/25 08:44:28;;;;;;;2.57;1.30;;;;;;;-140.72;100.00;53151.84;5092194;28;20034;-63
2022/11/25 08:46:54;;;;;;;2.85;0.75;;;;;;;-140.72;100.00;53180.25;5095023;28;20047;-66
2022/11/25 08:49:20;;;;;;;1.73;0.77;;;;;;;-140.72;100.00;53139.69;5097542;27;20085;-64
2022/11/25 08:51:46;;;;;;;4.22;1.23;;;;;;;-140.72;100.00;53184.31;5099216;27;20492;-64
2022/11/25 08:54:11;;;;;;;4.55;0.68;;;;;;;-140.72;100.00;53194.47;5096216;28;20091;-63
2022/11/25 08:56:39;;;;;;;1.55;0.70;;;;;;;-140.72;100.00;53168.09;5097996;28;20420;-69
2022/11/25 08:59:05;;;;;;;6.78;0.75;;;;;;;-140.72;100.00;53137.66;5099769;28;20371;-65
2022/11/25 09:01:33;;;;;;;6.82;1.00;;;;;;;-140.72;100.00;53141.69;5099996;28;20366;-63
2022/11/25 09:04:00;;;;;;;3.00;1.27;;;;;;;-140.72;100.00;53149.81;5097153;27;20041;-66
2022/11/25 09:06:27;;;;;;;1.65;1.00;;;;;;;-140.72;100.00;53155.91;5104768;28;20023;-64
2022/11/25 09:08:57;;;;;;;4.68;1.05;;;;;;;-140.72;100.00;53178.22;5105867;28;20100;-65
2022/11/25 09:11:24;;;;;;;1.55;0.80;;;;;;;-140.72;100.00;53127.50;5096185;27;20035;-64
2022/11/25 09:13:49;;;;;;;3.03;1.10;;;;;;;-140.72;100.00;53143.72;5097873;28;20109;-65
2022/11/25 09:16:15;;;;;;;1.27;0.63;;;;;;;-140.72;100.00;53166.06;5104255;28;20120;-64
2022/11/25 09:18:41;;;;;;;7.55;0.85;;;;;;;-140.72;100.00;53157.94;5101387;28;20024;-64
2022/11/25 09:21:11;;;;;;;1.70;0.65;;;;;;;-140.72;100.00;53162.00;5098886;28;20032;-65
2022/11/25 09:23:38;;;;;;;3.60;1.15;;;;;;;-140.72;100.00;53133.59;5101614;28;20024;-64
2022/11/25 09:26:05;;;;;;;3.75;1.05;;;;;;;-140.72;100.00;53151.84;5102164;28;20032;-64
2022/11/25 09:28:30;;;;;;;1.67;1.23;;;;;;;-140.72;100.00;53129.53;5104062;28;20053;-66
2022/11/25 09:30:56;;;;;;;4.03;1.17;;;;;;;-140.72;100.00;53111.25;5098812;28;20446;-64
2022/11/25 09:33:21;;;;;;;7.78;0.95;;;;;;;-140.72;100.00;53174.19;5100085;28;20032;-65
2022/11/25 09:35:47;;;;;;;3.88;1.23;;;;;;;-140.72;100.00;53093.00;5098447;28;20024;-64
2022/11/25 09:38:13;;;;;;;3.38;1.27;;;;;;;-140.72;100.00;53105.19;5100454;28;20026;-67
2022/11/25 09:40:50;;;;;;;3.15;0.80;;;;;;;-140.72;100.00;53135.63;5099882;28;20435;-64
2022/11/25 09:49:49;;;;;;;4.50;1.25;;;;;;;-140.72;100.00;53105.19;5081582;28;20126;-65
2022/11/25 09:52:20;;;;;;;6.28;1.17;;;;;;;-140.72;100.00;53147.78;5097741;28;20035;-64
2022/11/25 09:54:58;;;;;;;5.72;1.23;;;;;;;-140.72;100.00;53174.19;5100347;28;20024;-65
2022/11/25 09:57:42;;;;;;;4.03;0.70;;;;;;;-140.72;100.00;53153.88;5099621;28;20024;-65
2022/11/25 10:00:18;;;;;;;6.20;1.02;;;;;;;-140.72;100.00;53145.75;5108565;28;20376;-66
2022/11/25 10:02:55;;;;;;;3.72;0.90;;;;;;;-140.72;100.00;53131.56;5098252;28;20081;-65
2022/11/25 10:05:26;;;;;;;3.72;1.35;;;;;;;-140.72;100.00;53095.03;5102069;28;20035;-65
2022/11/25 10:07:54;;;;;;;10.52;1.63;;;;;;;-140.72;100.00;53119.38;5103120;28;20122;-64
2022/11/25 10:10:26;;;;;;;7.43;1.25;;;;;;;-140.72;100.00;53121.41;5108254;27;20028;-65
2022/11/25 10:12:55;;;;;;;3.50;0.82;;;;;;;-140.72;100.00;53170.13;5104593;27;20035;-65
2022/11/25 10:15:33;;;;;;;8.00;1.45;;;;;;;-140.72;100.00;53115.31;5113249;28;20082;-65
2022/11/25 10:18:16;;;;;;;4.93;1.20;;;;;;;-140.72;100.00;53086.91;5112548;28;20015;-65
2022/11/25 10:20:42;;;;;;;2.47;1.20;;;;;;;-140.72;100.00;53095.03;5104963;28;20478;-65
2022/11/25 10:23:17;;;;;;;9.48;1.40;;;;;;;-140.72;100.00;53119.38;5105969;27;20545;-70
2022/11/25 10:25:50;;;;;;;4.32;0.95;;;;;;;-140.72;100.00;53090.97;5103058;28;20031;-65
2022/11/25 10:28:17;;;;;;;6.82;1.35;;;;;;;-140.72;100.00;53093.00;5094492;28;20032;-67
2022/11/25 10:31:01;;;;;;;2.30;1.20;;;;;;;-140.72;100.00;53074.72;5108666;27;20020;-66
2022/11/25 10:33:44;;;;;;;4.03;1.58;;;;;;;-140.72;100.00;53097.06;5104854;27;20265;-68
2022/11/25 10:36:31;;;;;;;1.35;0.65;;;;;;;-140.72;100.00;53101.13;5102974;28;20508;-65
2022/11/25 10:39:01;;;;;;;3.90;1.45;;;;;;;-140.72;100.00;53040.22;5104866;27;20106;-63
2022/11/25 10:41:33;;;;;;;3.17;1.05;;;;;;;-140.72;100.00;53064.59;5101025;27;20031;-64
2022/11/25 10:43:59;;;;;;;1.65;0.98;;;;;;;-140.72;100.00;53129.53;5109810;27;20024;-65
2022/11/25 10:46:34;;;;;;;4.47;1.38;;;;;;;-140.72;100.00;53131.56;5119538;27;20035;-71
2022/11/25 10:49:14;;;;;;;6.03;1.30;;;;;;;-140.72;100.00;53070.69;5099282;27;20024;-65
2022/11/25 10:51:46;;;;;;;2.55;1.13;;;;;;;-140.72;100.00;53093.00;5112613;27;20042;-65
2022/11/25 10:54:19;;;;;;;6.25;1.10;;;;;;;-140.72;100.00;53109.22;5098205;27;20072;-65
2022/11/25 10:56:52;;;;;;;3.47;0.95;;;;;;;-140.72;100.00;53042.25;5106744;27;20104;-67
2022/11/25 10:59:25;;;;;;;3.33;0.95;;;;;;;-140.72;100.00;53064.59;5109713;27;20072;-64
2022/11/25 11:01:53;;;;;;;1.65;0.68;;;;;;;-140.72;100.00;53093.00;5101022;28;20530;-69
2022/11/25 11:04:19;;;;;;;6.18;0.90;;;;;;;-140.72;100.00;53082.84;5108450;27;20024;-68
2022/11/25 11:06:47;;;;;;;9.23;1.25;;;;;;;-140.72;100.00;53111.25;5111370;27;20476;-65
2022/11/25 11:09:36;;;;;;;1.63;0.50;;;;;;;-140.72;100.00;53074.72;5101427;28;20032;-65
2022/11/25 11:12:20;;;;;;;9.25;1.23;;;;;;;-140.72;100.00;53056.47;5109867;27;20477;-63
2022/11/25 11:14:46;;;;;;;5.95;1.95;;;;;;;-140.72;100.00;53068.66;5101039;28;20097;-67
2022/11/25 11:17:32;;;;;;;7.00;1.00;;;;;;;-140.72;100.00;53034.16;5106091;27;20051;-63
2022/11/25 11:20:05;;;;;;;7.45;1.10;;;;;;;-140.72;100.00;53011.81;5099577;28;20030;-66
2022/11/25 11:22:32;;;;;;;5.22;0.82;;;;;;;-140.72;100.00;53001.66;5099864;28;20266;-66
2022/11/25 11:25:25;;;;;;;1.65;0.88;;;;;;;-140.72;100.00;53052.41;5111226;28;20114;-65
2022/11/25 11:27:51;;;;;;;6.82;1.52;;;;;;;-140.72;100.00;53017.91;5102998;28;20098;-64